Ah Gwah Ching, Minnesota
Current Conditions -  °F | °C
As of 12:55 PM on Friday 31 Oct 2014 (Local Time) from KY49 Reporting Station
Clear Clear  
Wind Chill: 28°   Ceiling: Unl
Heat Index: 33°   Visibility: 10mi
Dew Point: 19°   Wind: 5mph
Humidity: 58%   Direction: 140°SE
Pressure: 30.53"   Gusts: NA
Location:  47.08°N, 94.57°W
Report Text: KY49 311755Z AUTO 14004KT 10SM CLR 00/M07 A3053 RMK AO2 T00031071 10003 21062
Loading
Personal Weather Stations






























Interactive Weather Map New forecast layout! Learn more

10-Day Weather Forecast

Advertisements
Track Severe Weather on mobile